sensor_id;sensor_type;location;lat;lon;timestamp;pressure;altitude;pressure_sealevel;temperature;humidity
41947;BME280;27638;42.184;24.848;2024-03-02T00:00:09;99534.22;;;7.71;100.00
41947;BME280;27638;42.184;24.848;2024-03-02T00:02:41;99522.00;;;7.69;100.00
41947;BME280;27638;42.184;24.848;2024-03-02T00:05:07;99536.53;;;7.74;100.00
41947;BME280;27638;42.184;24.848;2024-03-02T00:07:33;99537.59;;;7.81;100.00
41947;BME280;27638;42.184;24.848;2024-03-02T00:09:59;99531.22;;;8.01;100.00
41947;BME280;27638;42.184;24.848;2024-03-02T00:12:25;99517.50;;;7.97;100.00
41947;BME280;27638;42.184;24.848;2024-03-02T00:14:51;99530.09;;;8.04;100.00
41947;BME280;27638;42.184;24.848;2024-03-02T00:17:24;99526.09;;;7.99;100.00
41947;BME280;27638;42.184;24.848;2024-03-02T00:19:51;99521.19;;;8.05;100.00
41947;BME280;27638;42.184;24.848;2024-03-02T00:22:16;99520.06;;;8.07;100.00
41947;BME280;27638;42.184;24.848;2024-03-02T00:24:42;99529.69;;;8.16;100.00
41947;BME280;27638;42.184;24.848;2024-03-02T00:27:08;99525.41;;;8.15;100.00
41947;BME280;27638;42.184;24.848;2024-03-02T00:29:38;99519.31;;;8.15;100.00
41947;BME280;27638;42.184;24.848;2024-03-02T00:32:12;99521.41;;;8.11;100.00
41947;BME280;27638;42.184;24.848;2024-03-02T00:34:38;99513.72;;;8.18;100.00
41947;BME280;27638;42.184;24.848;2024-03-02T00:37:04;99516.88;;;8.21;100.00
41947;BME280;27638;42.184;24.848;2024-03-02T00:39:29;99509.31;;;8.36;100.00
41947;BME280;27638;42.184;24.848;2024-03-02T00:41:55;99510.03;;;8.46;100.00
41947;BME280;27638;42.184;24.848;2024-03-02T00:44:25;99496.28;;;8.35;100.00
41947;BME280;27638;42.184;24.848;2024-03-02T00:46:51;99501.97;;;8.48;100.00
41947;BME280;27638;42.184;24.848;2024-03-02T00:49:22;99503.22;;;8.36;100.00
41947;BME280;27638;42.184;24.848;2024-03-02T00:51:50;99499.16;;;8.31;100.00
41947;BME280;27638;42.184;24.848;2024-03-02T00:54:19;99492.06;;;8.32;100.00
41947;BME280;27638;42.184;24.848;2024-03-02T00:56:47;99494.00;;;8.40;100.00
41947;BME280;27638;42.184;24.848;2024-03-02T00:59:13;99496.19;;;8.44;100.00
41947;BME280;27638;42.184;24.848;2024-03-02T01:01:38;99493.63;;;8.35;100.00
41947;BME280;27638;42.184;24.848;2024-03-02T01:04:04;99485.03;;;8.32;100.00
41947;BME280;27638;42.184;24.848;2024-03-02T01:06:30;99478.66;;;8.25;100.00
41947;BME280;27638;42.184;24.848;2024-03-02T01:08:56;99486.72;;;8.34;100.00
41947;BME280;27638;42.184;24.848;2024-03-02T01:11:21;99474.75;;;8.29;100.00
41947;BME280;27638;42.184;24.848;2024-03-02T01:13:47;99472.03;;;8.21;100.00
41947;BME280;27638;42.184;24.848;2024-03-02T01:16:13;99469.19;;;8.32;100.00
41947;BME280;27638;42.184;24.848;2024-03-02T01:18:39;99468.31;;;8.32;100.00
41947;BME280;27638;42.184;24.848;2024-03-02T01:21:04;99475.81;;;8.19;100.00
41947;BME280;27638;42.184;24.848;2024-03-02T01:23:30;99475.44;;;8.14;100.00
41947;BME280;27638;42.184;24.848;2024-03-02T01:25:55;99474.06;;;8.27;100.00
41947;BME280;27638;42.184;24.848;2024-03-02T01:28:21;99467.66;;;8.30;100.00
41947;BME280;27638;42.184;24.848;2024-03-02T01:30:47;99474.63;;;8.13;100.00
41947;BME280;27638;42.184;24.848;2024-03-02T01:33:13;99470.09;;;8.23;100.00
41947;BME280;27638;42.184;24.848;2024-03-02T01:35:38;99466.16;;;8.27;100.00
41947;BME280;27638;42.184;24.848;2024-03-02T01:38:04;99468.59;;;8.39;100.00
41947;BME280;27638;42.184;24.848;2024-03-02T01:40:33;99477.16;;;8.23;100.00
41947;BME280;27638;42.184;24.848;2024-03-02T01:42:59;99467.69;;;8.12;100.00
41947;BME280;27638;42.184;24.848;2024-03-02T01:45:24;99475.28;;;8.15;100.00
41947;BME280;27638;42.184;24.848;2024-03-02T01:47:50;99467.63;;;8.04;100.00
41947;BME280;27638;42.184;24.848;2024-03-02T01:50:16;99477.28;;;7.95;100.00
41947;BME280;27638;42.184;24.848;2024-03-02T01:52:49;99468.91;;;8.00;100.00
41947;BME280;27638;42.184;24.848;2024-03-02T01:55:15;99463.41;;;8.11;100.00
41947;BME280;27638;42.184;24.848;2024-03-02T01:57:40;99469.03;;;8.16;100.00
41947;BME280;27638;42.184;24.848;2024-03-02T02:00:06;99465.13;;;8.02;100.00
41947;BME280;27638;42.184;24.848;2024-03-02T02:02:32;99466.72;;;8.13;100.00
41947;BME280;27638;42.184;24.848;2024-03-02T02:04:57;99465.81;;;8.05;100.00
41947;BME280;27638;42.184;24.848;2024-03-02T02:07:23;99462.50;;;8.02;100.00
41947;BME280;27638;42.184;24.848;2024-03-02T02:09:48;99464.22;;;8.12;100.00
41947;BME280;27638;42.184;24.848;2024-03-02T02:12:14;99461.97;;;7.99;100.00
41947;BME280;27638;42.184;24.848;2024-03-02T02:14:47;99453.72;;;8.20;100.00
41947;BME280;27638;42.184;24.848;2024-03-02T02:17:14;99449.00;;;8.06;100.00
41947;BME280;27638;42.184;24.848;2024-03-02T02:19:40;99454.97;;;8.08;100.00
41947;BME280;27638;42.184;24.848;2024-03-02T02:22:06;99455.19;;;8.14;100.00
41947;BME280;27638;42.184;24.848;2024-03-02T02:24:31;99458.69;;;8.23;100.00
41947;BME280;27638;42.184;24.848;2024-03-02T02:26:57;99452.44;;;8.24;100.00
41947;BME280;27638;42.184;24.848;2024-03-02T02:29:22;99456.38;;;8.20;100.00
41947;BME280;27638;42.184;24.848;2024-03-02T02:31:48;99445.81;;;8.20;100.00
41947;BME280;27638;42.184;24.848;2024-03-02T02:34:14;99449.28;;;8.20;100.00
41947;BME280;27638;42.184;24.848;2024-03-02T02:36:39;99452.28;;;8.25;100.00
41947;BME280;27638;42.184;24.848;2024-03-02T02:39:08;99454.41;;;8.22;100.00
41947;BME280;27638;42.184;24.848;2024-03-02T02:41:36;99445.66;;;8.21;100.00
41947;BME280;27638;42.184;24.848;2024-03-02T02:44:01;99445.50;;;8.23;100.00
41947;BME280;27638;42.184;24.848;2024-03-02T02:46:27;99450.00;;;8.05;100.00
41947;BME280;27638;42.184;24.848;2024-03-02T02:48:52;99451.56;;;8.15;100.00
41947;BME280;27638;42.184;24.848;2024-03-02T02:51:19;99449.13;;;8.22;100.00
41947;BME280;27638;42.184;24.848;2024-03-02T02:53:44;99453.13;;;8.26;100.00
41947;BME280;27638;42.184;24.848;2024-03-02T02:56:10;99452.50;;;8.32;100.00
41947;BME280;27638;42.184;24.848;2024-03-02T02:58:35;99446.81;;;8.37;100.00
41947;BME280;27638;42.184;24.848;2024-03-02T03:01:01;99440.88;;;8.35;100.00
41947;BME280;27638;42.184;24.848;2024-03-02T03:03:26;99449.38;;;8.11;100.00
41947;BME280;27638;42.184;24.848;2024-03-02T03:05:52;99452.28;;;8.25;100.00
41947;BME280;27638;42.184;24.848;2024-03-02T03:08:17;99457.09;;;8.30;100.00
41947;BME280;27638;42.184;24.848;2024-03-02T03:10:43;99450.28;;;8.37;100.00
41947;BME280;27638;42.184;24.848;2024-03-02T03:13:08;99457.78;;;8.32;100.00
41947;BME280;27638;42.184;24.848;2024-03-02T03:15:35;99448.06;;;8.50;100.00
41947;BME280;27638;42.184;24.848;2024-03-02T03:18:02;99441.97;;;8.50;100.00
41947;BME280;27638;42.184;24.848;2024-03-02T03:20:29;99443.81;;;8.57;100.00
41947;BME280;27638;42.184;24.848;2024-03-02T03:22:55;99444.22;;;8.71;100.00
41947;BME280;27638;42.184;24.848;2024-03-02T03:25:20;99448.50;;;8.72;100.00
41947;BME280;27638;42.184;24.848;2024-03-02T03:27:45;99448.00;;;8.68;100.00
41947;BME280;27638;42.184;24.848;2024-03-02T03:30:11;99433.38;;;8.48;100.00
41947;BME280;27638;42.184;24.848;2024-03-02T03:32:37;99430.38;;;8.43;100.00
41947;BME280;27638;42.184;24.848;2024-03-02T03:35:03;99431.81;;;8.63;100.00
41947;BME280;27638;42.184;24.848;2024-03-02T03:37:29;99437.78;;;8.73;100.00
41947;BME280;27638;42.184;24.848;2024-03-02T03:40:04;99430.53;;;8.75;100.00
41947;BME280;27638;42.184;24.848;2024-03-02T03:42:36;99426.84;;;8.60;100.00
41947;BME280;27638;42.184;24.848;2024-03-02T03:45:02;99426.78;;;8.52;100.00
41947;BME280;27638;42.184;24.848;2024-03-02T03:47:27;99423.03;;;8.54;100.00
41947;BME280;27638;42.184;24.848;2024-03-02T03:49:53;99420.66;;;8.43;100.00
41947;BME280;27638;42.184;24.848;2024-03-02T03:52:18;99431.56;;;8.30;100.00
41947;BME280;27638;42.184;24.848;2024-03-02T03:54:44;99433.56;;;8.54;100.00
41947;BME280;27638;42.184;24.848;2024-03-02T03:57:10;99430.63;;;8.57;100.00
41947;BME280;27638;42.184;24.848;2024-03-02T03:59:35;99433.13;;;8.33;100.00
41947;BME280;27638;42.184;24.848;2024-03-02T04:02:03;99435.81;;;8.41;100.00
41947;BME280;27638;42.184;24.848;2024-03-02T04:04:28;99440.94;;;8.43;100.00
41947;BME280;27638;42.184;24.848;2024-03-02T04:06:54;99444.50;;;8.59;100.00
41947;BME280;27638;42.184;24.848;2024-03-02T04:09:19;99446.78;;;8.88;100.00
41947;BME280;27638;42.184;24.848;2024-03-02T04:11:45;99440.31;;;8.83;100.00
41947;BME280;27638;42.184;24.848;2024-03-02T04:14:10;99443.66;;;8.59;100.00
41947;BME280;27638;42.184;24.848;2024-03-02T04:16:37;99445.44;;;8.84;100.00
41947;BME280;27638;42.184;24.848;2024-03-02T04:19:03;99447.16;;;9.02;100.00
41947;BME280;27638;42.184;24.848;2024-03-02T04:21:29;99451.19;;;9.22;100.00
41947;BME280;27638;42.184;24.848;2024-03-02T04:23:54;99450.72;;;9.35;100.00
41947;BME280;27638;42.184;24.848;2024-03-02T04:26:23;99450.97;;;9.49;100.00
41947;BME280;27638;42.184;24.848;2024-03-02T04:28:50;99450.47;;;9.62;100.00
41947;BME280;27638;42.184;24.848;2024-03-02T04:31:16;99452.13;;;9.63;100.00
41947;BME280;27638;42.184;24.848;2024-03-02T04:33:42;99458.50;;;9.36;100.00
41947;BME280;27638;42.184;24.848;2024-03-02T04:36:08;99444.47;;;9.36;100.00
41947;BME280;27638;42.184;24.848;2024-03-02T04:38:37;99448.44;;;8.89;100.00
41947;BME280;27638;42.184;24.848;2024-03-02T04:41:04;99447.53;;;8.73;100.00
41947;BME280;27638;42.184;24.848;2024-03-02T04:43:31;99445.16;;;8.61;100.00
41947;BME280;27638;42.184;24.848;2024-03-02T04:45:58;99454.53;;;8.56;100.00
41947;BME280;27638;42.184;24.848;2024-03-02T04:48:23;99439.75;;;8.37;100.00
41947;BME280;27638;42.184;24.848;2024-03-02T04:50:49;99440.25;;;8.41;100.00
41947;BME280;27638;42.184;24.848;2024-03-02T04:53:14;99435.66;;;8.43;100.00
41947;BME280;27638;42.184;24.848;2024-03-02T04:55:40;99456.56;;;8.36;100.00
41947;BME280;27638;42.184;24.848;2024-03-02T04:58:05;99457.28;;;8.46;100.00
41947;BME280;27638;42.184;24.848;2024-03-02T05:00:32;99465.63;;;8.24;100.00
41947;BME280;27638;42.184;24.848;2024-03-02T05:02:57;99459.22;;;8.26;100.00
41947;BME280;27638;42.184;24.848;2024-03-02T05:05:23;99479.28;;;8.19;100.00
41947;BME280;27638;42.184;24.848;2024-03-02T05:07:48;99471.25;;;8.03;100.00
41947;BME280;27638;42.184;24.848;2024-03-02T05:10:14;99471.44;;;8.27;100.00
41947;BME280;27638;42.184;24.848;2024-03-02T05:12:39;99471.31;;;8.11;100.00
41947;BME280;27638;42.184;24.848;2024-03-02T05:15:08;99481.25;;;7.99;100.00
41947;BME280;27638;42.184;24.848;2024-03-02T05:17:36;99476.88;;;8.08;100.00
41947;BME280;27638;42.184;24.848;2024-03-02T05:20:02;99468.97;;;8.08;100.00
41947;BME280;27638;42.184;24.848;2024-03-02T05:22:28;99472.19;;;8.20;100.00
41947;BME280;27638;42.184;24.848;2024-03-02T05:24:54;99472.75;;;8.06;100.00
41947;BME280;27638;42.184;24.848;2024-03-02T05:27:19;99466.78;;;8.04;100.00
41947;BME280;27638;42.184;24.848;2024-03-02T05:29:45;99472.97;;;8.12;100.00
41947;BME280;27638;42.184;24.848;2024-03-02T05:32:10;99468.00;;;8.09;100.00
41947;BME280;27638;42.184;24.848;2024-03-02T05:34:36;99478.97;;;8.22;100.00
41947;BME280;27638;42.184;24.848;2024-03-02T05:37:01;99477.09;;;8.15;100.00
41947;BME280;27638;42.184;24.848;2024-03-02T05:39:27;99490.28;;;8.15;100.00
41947;BME280;27638;42.184;24.848;2024-03-02T05:41:52;99485.91;;;8.23;100.00
41947;BME280;27638;42.184;24.848;2024-03-02T05:44:18;99484.94;;;8.24;100.00
41947;BME280;27638;42.184;24.848;2024-03-02T05:46:45;99480.63;;;8.23;100.00
41947;BME280;27638;42.184;24.848;2024-03-02T05:49:10;99479.06;;;8.48;100.00
41947;BME280;27638;42.184;24.848;2024-03-02T05:51:36;99483.91;;;8.35;100.00
41947;BME280;27638;42.184;24.848;2024-03-02T05:54:01;99486.94;;;8.30;100.00
41947;BME280;27638;42.184;24.848;2024-03-02T05:56:27;99480.44;;;8.35;100.00
41947;BME280;27638;42.184;24.848;2024-03-02T05:58:53;99488.41;;;8.43;100.00
41947;BME280;27638;42.184;24.848;2024-03-02T06:01:33;99468.63;;;8.29;100.00
41947;BME280;27638;42.184;24.848;2024-03-02T06:03:58;99474.47;;;8.32;100.00
41947;BME280;27638;42.184;24.848;2024-03-02T06:06:24;99465.81;;;8.40;100.00
41947;BME280;27638;42.184;24.848;2024-03-02T06:08:50;99481.84;;;8.47;100.00
41947;BME280;27638;42.184;24.848;2024-03-02T06:11:16;99470.22;;;8.57;100.00
41947;BME280;27638;42.184;24.848;2024-03-02T06:13:41;99474.41;;;8.68;100.00
41947;BME280;27638;42.184;24.848;2024-03-02T06:16:07;99496.03;;;8.46;100.00
41947;BME280;27638;42.184;24.848;2024-03-02T06:18:34;99493.22;;;8.29;100.00
41947;BME280;27638;42.184;24.848;2024-03-02T06:20:59;99494.69;;;8.42;100.00
41947;BME280;27638;42.184;24.848;2024-03-02T06:23:26;99497.94;;;8.36;100.00
41947;BME280;27638;42.184;24.848;2024-03-02T06:25:52;99492.94;;;8.32;100.00
41947;BME280;27638;42.184;24.848;2024-03-02T06:28:17;99492.00;;;8.24;100.00
41947;BME280;27638;42.184;24.848;2024-03-02T06:30:43;99493.19;;;8.39;100.00
41947;BME280;27638;42.184;24.848;2024-03-02T06:33:09;99492.06;;;8.32;100.00
41947;BME280;27638;42.184;24.848;2024-03-02T06:35:34;99497.78;;;8.37;100.00
41947;BME280;27638;42.184;24.848;2024-03-02T06:38:01;99482.72;;;8.55;100.00
41947;BME280;27638;42.184;24.848;2024-03-02T06:40:26;99477.91;;;8.51;100.00
41947;BME280;27638;42.184;24.848;2024-03-02T06:42:52;99489.88;;;8.37;100.00
41947;BME280;27638;42.184;24.848;2024-03-02T06:45:18;99502.75;;;8.40;100.00
41947;BME280;27638;42.184;24.848;2024-03-02T06:47:43;99514.28;;;8.39;100.00
41947;BME280;27638;42.184;24.848;2024-03-02T06:50:09;99513.31;;;8.40;100.00
41947;BME280;27638;42.184;24.848;2024-03-02T06:52:35;99520.22;;;8.41;100.00
41947;BME280;27638;42.184;24.848;2024-03-02T06:55:01;99522.34;;;8.38;100.00
41947;BME280;27638;42.184;24.848;2024-03-02T06:57:26;99525.16;;;8.26;100.00
41947;BME280;27638;42.184;24.848;2024-03-02T06:59:52;99518.88;;;8.37;100.00
41947;BME280;27638;42.184;24.848;2024-03-02T07:02:20;99523.59;;;8.51;100.00
41947;BME280;27638;42.184;24.848;2024-03-02T07:04:46;99522.56;;;8.44;100.00
41947;BME280;27638;42.184;24.848;2024-03-02T07:07:12;99512.31;;;8.41;100.00
41947;BME280;27638;42.184;24.848;2024-03-02T07:09:38;99505.59;;;8.47;100.00
41947;BME280;27638;42.184;24.848;2024-03-02T07:12:03;99489.97;;;8.79;100.00
41947;BME280;27638;42.184;24.848;2024-03-02T07:14:29;99489.09;;;9.05;100.00
41947;BME280;27638;42.184;24.848;2024-03-02T07:17:13;99495.88;;;9.07;100.00
41947;BME280;27638;42.184;24.848;2024-03-02T07:19:39;99498.75;;;9.22;100.00
41947;BME280;27638;42.184;24.848;2024-03-02T07:22:08;99499.38;;;9.16;100.00
41947;BME280;27638;42.184;24.848;2024-03-02T07:24:42;99507.34;;;9.24;100.00
41947;BME280;27638;42.184;24.848;2024-03-02T07:27:11;99516.69;;;9.44;100.00
41947;BME280;27638;42.184;24.848;2024-03-02T07:29:37;99513.72;;;9.47;100.00
41947;BME280;27638;42.184;24.848;2024-03-02T07:32:04;99516.59;;;9.28;100.00
41947;BME280;27638;42.184;24.848;2024-03-02T07:34:29;99523.22;;;9.32;100.00
41947;BME280;27638;42.184;24.848;2024-03-02T07:36:55;99525.47;;;9.53;100.00
41947;BME280;27638;42.184;24.848;2024-03-02T07:39:21;99529.56;;;9.39;100.00
41947;BME280;27638;42.184;24.848;2024-03-02T07:41:47;99520.56;;;9.32;100.00
41947;BME280;27638;42.184;24.848;2024-03-02T07:44:13;99525.66;;;9.59;100.00
41947;BME280;27638;42.184;24.848;2024-03-02T07:46:43;99518.88;;;9.57;100.00
41947;BME280;27638;42.184;24.848;2024-03-02T07:49:09;99505.38;;;9.76;100.00
41947;BME280;27638;42.184;24.848;2024-03-02T07:51:35;99522.91;;;9.85;100.00
41947;BME280;27638;42.184;24.848;2024-03-02T07:54:00;99502.91;;;9.91;100.00
41947;BME280;27638;42.184;24.848;2024-03-02T07:56:26;99531.50;;;9.96;100.00
41947;BME280;27638;42.184;24.848;2024-03-02T07:58:52;99534.09;;;9.63;100.00
41947;BME280;27638;42.184;24.848;2024-03-02T08:01:18;99527.84;;;9.72;100.00
41947;BME280;27638;42.184;24.848;2024-03-02T08:03:43;99516.47;;;9.88;100.00
41947;BME280;27638;42.184;24.848;2024-03-02T08:06:19;99516.47;;;9.96;100.00
41947;BME280;27638;42.184;24.848;2024-03-02T08:08:47;99526.34;;;9.78;100.00
41947;BME280;27638;42.184;24.848;2024-03-02T08:11:12;99527.31;;;9.60;100.00
41947;BME280;27638;42.184;24.848;2024-03-02T08:13:38;99530.25;;;9.49;100.00
41947;BME280;27638;42.184;24.848;2024-03-02T08:16:04;99532.91;;;9.49;100.00
41947;BME280;27638;42.184;24.848;2024-03-02T08:18:32;99526.31;;;9.53;100.00
41947;BME280;27638;42.184;24.848;2024-03-02T08:20:58;99528.63;;;9.22;100.00
41947;BME280;27638;42.184;24.848;2024-03-02T08:23:24;99524.13;;;9.15;100.00
41947;BME280;27638;42.184;24.848;2024-03-02T08:25:49;99516.28;;;8.97;100.00
41947;BME280;27638;42.184;24.848;2024-03-02T08:28:15;99529.41;;;8.81;100.00
41947;BME280;27638;42.184;24.848;2024-03-02T08:30:40;99520.03;;;8.86;100.00
41947;BME280;27638;42.184;24.848;2024-03-02T08:33:06;99523.13;;;8.82;100.00
41947;BME280;27638;42.184;24.848;2024-03-02T08:35:31;99524.69;;;8.92;100.00
41947;BME280;27638;42.184;24.848;2024-03-02T08:38:02;99527.31;;;8.92;100.00
41947;BME280;27638;42.184;24.848;2024-03-02T08:40:28;99514.63;;;8.96;100.00
41947;BME280;27638;42.184;24.848;2024-03-02T08:42:54;99520.47;;;9.08;100.00
41947;BME280;27638;42.184;24.848;2024-03-02T08:45:19;99512.44;;;9.17;100.00
41947;BME280;27638;42.184;24.848;2024-03-02T08:47:46;99517.06;;;9.23;100.00
41947;BME280;27638;42.184;24.848;2024-03-02T08:50:11;99508.59;;;9.12;100.00
41947;BME280;27638;42.184;24.848;2024-03-02T08:52:37;99513.06;;;9.11;100.00
41947;BME280;27638;42.184;24.848;2024-03-02T08:55:02;99495.81;;;9.33;100.00
41947;BME280;27638;42.184;24.848;2024-03-02T08:57:28;99500.78;;;9.36;100.00
41947;BME280;27638;42.184;24.848;2024-03-02T08:59:53;99505.44;;;9.42;100.00
41947;BME280;27638;42.184;24.848;2024-03-02T09:02:19;99520.91;;;9.29;100.00
41947;BME280;27638;42.184;24.848;2024-03-02T09:04:44;99508.66;;;9.28;100.00
41947;BME280;27638;42.184;24.848;2024-03-02T09:07:10;99514.47;;;9.32;100.00
41947;BME280;27638;42.184;24.848;2024-03-02T09:09:35;99514.44;;;9.23;100.00
41947;BME280;27638;42.184;24.848;2024-03-02T09:12:01;99512.59;;;9.16;100.00
41947;BME280;27638;42.184;24.848;2024-03-02T09:14:27;99515.63;;;9.29;100.00
41947;BME280;27638;42.184;24.848;2024-03-02T09:16:52;99527.66;;;9.23;100.00
41947;BME280;27638;42.184;24.848;2024-03-02T09:19:18;99522.88;;;9.27;100.00
41947;BME280;27638;42.184;24.848;2024-03-02T09:21:44;99517.75;;;9.25;100.00
41947;BME280;27638;42.184;24.848;2024-03-02T09:24:09;99510.28;;;9.21;100.00
41947;BME280;27638;42.184;24.848;2024-03-02T09:26:35;99522.69;;;9.20;100.00
41947;BME280;27638;42.184;24.848;2024-03-02T09:29:01;99521.41;;;9.33;100.00
41947;BME280;27638;42.184;24.848;2024-03-02T09:31:26;99509.81;;;9.68;100.00
41947;BME280;27638;42.184;24.848;2024-03-02T09:33:51;99507.22;;;9.92;100.00
41947;BME280;27638;42.184;24.848;2024-03-02T09:36:18;99519.75;;;9.82;100.00
41947;BME280;27638;42.184;24.848;2024-03-02T09:38:44;99518.47;;;10.02;100.00
41947;BME280;27638;42.184;24.848;2024-03-02T09:41:09;99518.13;;;10.05;100.00
41947;BME280;27638;42.184;24.848;2024-03-02T09:43:35;99522.91;;;9.85;100.00
41947;BME280;27638;42.184;24.848;2024-03-02T09:46:01;99521.91;;;9.86;100.00
41947;BME280;27638;42.184;24.848;2024-03-02T09:48:26;99528.22;;;9.93;100.00
41947;BME280;27638;42.184;24.848;2024-03-02T09:50:52;99528.56;;;10.15;100.00
41947;BME280;27638;42.184;24.848;2024-03-02T09:53:18;99529.91;;;10.27;100.00
41947;BME280;27638;42.184;24.848;2024-03-02T09:55:47;99526.72;;;9.99;100.00
41947;BME280;27638;42.184;24.848;2024-03-02T09:58:12;99523.63;;;10.20;100.00
41947;BME280;27638;42.184;24.848;2024-03-02T10:00:38;99534.66;;;10.07;100.00
41947;BME280;27638;42.184;24.848;2024-03-02T10:03:04;99522.59;;;10.05;100.00
41947;BME280;27638;42.184;24.848;2024-03-02T10:05:30;99524.91;;;10.16;100.00
41947;BME280;27638;42.184;24.848;2024-03-02T10:08:03;99515.38;;;10.31;100.00
41947;BME280;27638;42.184;24.848;2024-03-02T10:10:39;99524.66;;;10.51;100.00
41947;BME280;27638;42.184;24.848;2024-03-02T10:13:09;99526.94;;;10.38;100.00
41947;BME280;27638;42.184;24.848;2024-03-02T10:15:36;99518.03;;;10.55;100.00
41947;BME280;27638;42.184;24.848;2024-03-02T10:18:08;99516.06;;;10.41;100.00
41947;BME280;27638;42.184;24.848;2024-03-02T10:20:33;99520.69;;;10.47;100.00
41947;BME280;27638;42.184;24.848;2024-03-02T10:23:15;99520.84;;;10.54;100.00
41947;BME280;27638;42.184;24.848;2024-03-02T10:25:43;99520.16;;;10.28;100.00
41947;BME280;27638;42.184;24.848;2024-03-02T10:28:08;99513.22;;;10.35;100.00
41947;BME280;27638;42.184;24.848;2024-03-02T10:30:34;99514.03;;;10.27;100.00
41947;BME280;27638;42.184;24.848;2024-03-02T10:33:01;99503.97;;;10.55;100.00
41947;BME280;27638;42.184;24.848;2024-03-02T10:35:27;99501.28;;;10.71;100.00
41947;BME280;27638;42.184;24.848;2024-03-02T10:37:53;99493.69;;;10.60;100.00
41947;BME280;27638;42.184;24.848;2024-03-02T10:40:21;99491.63;;;10.86;100.00
41947;BME280;27638;42.184;24.848;2024-03-02T10:42:47;99494.25;;;11.03;100.00
41947;BME280;27638;42.184;24.848;2024-03-02T10:45:16;99485.59;;;11.09;100.00
41947;BME280;27638;42.184;24.848;2024-03-02T10:47:42;99485.13;;;11.05;100.00
41947;BME280;27638;42.184;24.848;2024-03-02T10:50:08;99475.16;;;11.15;100.00
41947;BME280;27638;42.184;24.848;2024-03-02T10:52:35;99475.44;;;11.20;100.00
41947;BME280;27638;42.184;24.848;2024-03-02T10:55:01;99472.63;;;11.22;100.00
41947;BME280;27638;42.184;24.848;2024-03-02T10:57:30;99477.84;;;11.38;100.00
41947;BME280;27638;42.184;24.848;2024-03-02T11:00:02;99471.19;;;11.42;100.00
41947;BME280;27638;42.184;24.848;2024-03-02T11:02:30;99465.59;;;11.37;100.00
41947;BME280;27638;42.184;24.848;2024-03-02T11:04:56;99459.94;;;11.48;100.00
41947;BME280;27638;42.184;24.848;2024-03-02T11:07:26;99462.34;;;11.58;100.00
41947;BME280;27638;42.184;24.848;2024-03-02T11:10:00;99457.94;;;11.73;100.00
41947;BME280;27638;42.184;24.848;2024-03-02T11:12:48;99455.78;;;11.77;100.00
41947;BME280;27638;42.184;24.848;2024-03-02T11:15:18;99452.78;;;11.80;100.00
41947;BME280;27638;42.184;24.848;2024-03-02T11:17:45;99452.25;;;11.85;100.00
41947;BME280;27638;42.184;24.848;2024-03-02T11:20:11;99446.97;;;11.85;100.00
41947;BME280;27638;42.184;24.848;2024-03-02T11:22:38;99448.25;;;11.89;100.00
41947;BME280;27638;42.184;24.848;2024-03-02T11:25:04;99444.88;;;11.95;100.00
41947;BME280;27638;42.184;24.848;2024-03-02T11:33:00;99451.03;;;11.95;100.00
41947;BME280;27638;42.184;24.848;2024-03-02T11:35:26;99440.69;;;12.00;100.00
41947;BME280;27638;42.184;24.848;2024-03-02T11:37:53;99445.94;;;12.08;100.00
41947;BME280;27638;42.184;24.848;2024-03-02T11:40:23;99438.09;;;12.15;100.00
41947;BME280;27638;42.184;24.848;2024-03-02T11:42:49;99440.19;;;12.20;100.00
41947;BME280;27638;42.184;24.848;2024-03-02T11:45:33;99439.00;;;12.22;100.00
41947;BME280;27638;42.184;24.848;2024-03-02T11:48:01;99436.09;;;12.32;100.00
41947;BME280;27638;42.184;24.848;2024-03-02T11:50:40;99436.03;;;12.40;100.00
41947;BME280;27638;42.184;24.848;2024-03-02T11:53:07;99421.75;;;12.41;100.00
41947;BME280;27638;42.184;24.848;2024-03-02T11:55:37;99429.50;;;12.28;100.00
41947;BME280;27638;42.184;24.848;2024-03-02T11:58:06;99418.81;;;12.36;100.00
41947;BME280;27638;42.184;24.848;2024-03-02T12:00:32;99418.44;;;12.39;100.00
41947;BME280;27638;42.184;24.848;2024-03-02T12:05:31;99423.28;;;12.35;100.00
41947;BME280;27638;42.184;24.848;2024-03-02T12:08:02;99419.25;;;12.39;100.00
41947;BME280;27638;42.184;24.848;2024-03-02T12:10:28;99406.16;;;12.38;100.00
41947;BME280;27638;42.184;24.848;2024-03-02T12:13:02;99404.81;;;12.42;100.00
41947;BME280;27638;42.184;24.848;2024-03-02T12:15:33;99406.91;;;12.32;100.00
41947;BME280;27638;42.184;24.848;2024-03-02T12:18:00;99412.84;;;12.19;100.00
41947;BME280;27638;42.184;24.848;2024-03-02T12:20:27;99410.84;;;12.36;100.00
41947;BME280;27638;42.184;24.848;2024-03-02T12:22:56;99412.31;;;12.38;100.00
41947;BME280;27638;42.184;24.848;2024-03-02T12:25:24;99413.59;;;12.42;100.00
41947;BME280;27638;42.184;24.848;2024-03-02T12:27:54;99409.22;;;12.50;100.00
41947;BME280;27638;42.184;24.848;2024-03-02T12:30:21;99412.03;;;12.48;100.00
41947;BME280;27638;42.184;24.848;2024-03-02T12:32:47;99405.06;;;12.47;100.00
41947;BME280;27638;42.184;24.848;2024-03-02T12:35:13;99404.75;;;12.50;100.00
41947;BME280;27638;42.184;24.848;2024-03-02T12:37:48;99410.25;;;12.49;100.00
41947;BME280;27638;42.184;24.848;2024-03-02T12:40:15;99403.44;;;12.46;100.00
41947;BME280;27638;42.184;24.848;2024-03-02T12:42:44;99410.00;;;12.35;100.00
41947;BME280;27638;42.184;24.848;2024-03-02T12:45:10;99412.13;;;12.40;100.00
41947;BME280;27638;42.184;24.848;2024-03-02T12:47:36;99420.44;;;12.22;100.00
41947;BME280;27638;42.184;24.848;2024-03-02T12:50:03;99417.22;;;12.27;100.00
41947;BME280;27638;42.184;24.848;2024-03-02T12:52:30;99421.78;;;12.18;100.00